Tinaja, New Mexico
Current Conditions -  °F | °C
As of 10:53 AM on Thursday 29 Jan 2015 (Local Time) from KGUP Reporting Station
Few Clouds Few Clouds  
Wind Chill:   Ceiling: Unl
Heat Index:   Visibility: 10mi
Dew Point: -2°   Wind: 6mph
Humidity: 50%   Direction: 40°NE
Pressure: 30.36"   Gusts: NA
Location:  35.1314°N, 108.496°W
Report Text: KGUP 291753Z AUTO 04005KT 10SM FEW110 08/M02 A3036 RMK AO2 SLP247 T00831017 10083 20000 53006
Loading
Personal Weather Stations






























Interactive Weather Map New forecast layout! Learn more

10-Day Weather Forecast

Advertisements
Track Severe Weather on mobile